Time;durP1;ratioP1;P1;durP2;ratioP2;P2;SDS_P1;SDS_P2;PMS_P1;PMS_P2;Temp;Humidity;BMP_temperature;BMP_pressure;BME280_temperature;BME280_humidity;BME280_pressure;Samples;Min_cycle;Max_cycle;Signal;HPM_P1;HPM_P2
2021/03/18 00:00:15;;;;;;;14.65;13.15;;;;;;;;;;5040845;28;20388;-86
2021/03/18 00:02:41;;;;;;;14.88;13.35;;;;;;;;;;5040677;28;20382;-84
2021/03/18 00:05:08;;;;;;;13.85;12.45;;;;;;;;;;5021393;28;20371;-86
2021/03/18 00:07:34;;;;;;;13.70;12.40;;;;;;;;;;5021100;28;20392;-83
2021/03/18 00:10:00;;;;;;;14.23;12.82;;;;;;;;;;5040208;28;20414;-85
2021/03/18 00:12:26;;;;;;;13.55;12.15;;;;;;;;;;5040240;28;20378;-83
2021/03/18 00:14:52;;;;;;;13.50;12.10;;;;;;;;;;5038694;28;20370;-85
2021/03/18 00:17:19;;;;;;;14.07;12.57;;;;;;;;;;5026639;28;20909;-83
2021/03/18 00:19:45;;;;;;;12.95;11.55;;;;;;;;;;5032691;28;20376;-85
2021/03/18 00:22:10;;;;;;;13.05;11.20;;;;;;;;;;5050385;28;20494;-85
2021/03/18 00:24:36;;;;;;;13.00;11.65;;;;;;;;;;5032137;28;20383;-83
2021/03/18 00:27:02;;;;;;;11.97;10.73;;;;;;;;;;5032005;28;20459;-83
2021/03/18 00:29:28;;;;;;;11.50;10.10;;;;;;;;;;5032006;28;20477;-86
2021/03/18 00:31:54;;;;;;;11.55;10.20;;;;;;;;;;5049861;28;20799;-86
2021/03/18 00:34:20;;;;;;;10.95;9.95;;;;;;;;;;5031882;28;21155;-83
2021/03/18 00:36:46;;;;;;;11.95;10.77;;;;;;;;;;5032432;28;20376;-82
2021/03/18 00:39:12;;;;;;;11.00;9.90;;;;;;;;;;5050822;28;20387;-86
2021/03/18 00:41:38;;;;;;;11.23;10.13;;;;;;;;;;5054293;28;20384;-85
2021/03/18 00:44:05;;;;;;;11.32;10.23;;;;;;;;;;5054038;28;20379;-82
2021/03/18 00:46:31;;;;;;;11.75;10.55;;;;;;;;;;5036385;28;20375;-82
2021/03/18 00:48:58;;;;;;;11.55;10.32;;;;;;;;;;5036080;28;20865;-85
2021/03/18 00:51:24;;;;;;;11.98;10.77;;;;;;;;;;5054021;28;20368;-84
2021/03/18 00:53:50;;;;;;;11.85;9.95;;;;;;;;;;5054083;28;20367;-84
2021/03/18 00:56:20;;;;;;;11.85;10.68;;;;;;;;;;5054156;28;20455;-83
2021/03/18 00:58:47;;;;;;;10.95;9.85;;;;;;;;;;5053812;28;20379;-85
2021/03/18 01:01:14;;;;;;;10.43;9.40;;;;;;;;;;5036101;28;20965;-85
2021/03/18 01:03:41;;;;;;;10.13;9.03;;;;;;;;;;5053882;28;20387;-82
2021/03/18 01:06:12;;;;;;;10.30;9.30;;;;;;;;;;5053694;28;20850;-86
2021/03/18 01:08:39;;;;;;;10.32;9.35;;;;;;;;;;5053800;28;20367;-82
2021/03/18 01:11:10;;;;;;;11.10;10.00;;;;;;;;;;5035671;28;20773;-83
2021/03/18 01:13:37;;;;;;;10.70;9.60;;;;;;;;;;5053790;28;20425;-86
2021/03/18 01:16:05;;;;;;;11.97;10.77;;;;;;;;;;5053488;28;20379;-84
2021/03/18 01:18:37;;;;;;;12.10;10.85;;;;;;;;;;5035475;28;20467;-87
2021/03/18 01:21:03;;;;;;;12.80;11.45;;;;;;;;;;5053391;28;20371;-84
2021/03/18 01:23:29;;;;;;;12.07;10.88;;;;;;;;;;5035579;28;20380;-86
2021/03/18 01:25:55;;;;;;;12.50;11.18;;;;;;;;;;5053354;28;20378;-84
2021/03/18 01:28:21;;;;;;;11.57;10.48;;;;;;;;;;5053459;28;20929;-85
2021/03/18 01:30:47;;;;;;;11.63;10.50;;;;;;;;;;5053006;28;20410;-84
2021/03/18 01:33:13;;;;;;;11.32;10.15;;;;;;;;;;5035557;28;20470;-86
2021/03/18 01:35:39;;;;;;;11.50;10.40;;;;;;;;;;5035393;28;20367;-86
2021/03/18 01:38:05;;;;;;;12.43;11.20;;;;;;;;;;5035288;28;20714;-83
2021/03/18 01:40:33;;;;;;;13.10;11.65;;;;;;;;;;5035432;28;20450;-82
2021/03/18 01:42:59;;;;;;;13.43;12.03;;;;;;;;;;5053396;28;20419;-83
2021/03/18 01:45:25;;;;;;;12.48;11.27;;;;;;;;;;5053142;28;20372;-84
2021/03/18 01:47:52;;;;;;;12.87;11.57;;;;;;;;;;5035218;28;20525;-83
2021/03/18 01:50:19;;;;;;;12.13;10.93;;;;;;;;;;5034462;28;20408;-83
2021/03/18 01:52:45;;;;;;;11.75;10.57;;;;;;;;;;5034799;28;20380;-84
2021/03/18 01:55:14;;;;;;;12.63;11.15;;;;;;;;;;5035174;28;20798;-83
2021/03/18 01:57:40;;;;;;;12.98;11.68;;;;;;;;;;5034955;28;20404;-83
2021/03/18 02:00:10;;;;;;;13.10;11.80;;;;;;;;;;5035025;28;20792;-85
2021/03/18 02:02:37;;;;;;;13.13;11.83;;;;;;;;;;5035033;28;20364;-84
2021/03/18 02:05:03;;;;;;;12.20;10.90;;;;;;;;;;5052639;28;20737;-82
2021/03/18 02:07:30;;;;;;;13.02;11.63;;;;;;;;;;5052757;28;20463;-84
2021/03/18 02:09:56;;;;;;;11.40;10.30;;;;;;;;;;5052276;28;20411;-84
2021/03/18 02:12:22;;;;;;;12.82;11.50;;;;;;;;;;5052669;28;20429;-85
2021/03/18 02:14:48;;;;;;;11.38;10.27;;;;;;;;;;5052376;28;20684;-83
2021/03/18 02:17:18;;;;;;;10.85;9.85;;;;;;;;;;5052368;28;20368;-82
2021/03/18 02:19:57;;;;;;;11.60;10.50;;;;;;;;;;5052418;28;20390;-84
2021/03/18 02:22:42;;;;;;;11.98;10.77;;;;;;;;;;5034806;28;20472;-86
2021/03/18 02:25:22;;;;;;;11.07;9.97;;;;;;;;;;5034466;28;20372;-85
2021/03/18 02:28:06;;;;;;;11.85;10.70;;;;;;;;;;5052286;28;20819;-85
2021/03/18 02:30:51;;;;;;;12.02;10.82;;;;;;;;;;5034146;28;20396;-84
2021/03/18 02:33:17;;;;;;;13.13;11.73;;;;;;;;;;5052307;28;20371;-84
2021/03/18 02:36:03;;;;;;;12.10;11.00;;;;;;;;;;5034312;28;20376;-85
2021/03/18 02:38:31;;;;;;;11.52;10.38;;;;;;;;;;5034132;28;20799;-83
2021/03/18 02:41:04;;;;;;;14.07;11.77;;;;;;;;;;5034094;28;20372;-85
2021/03/18 02:43:32;;;;;;;11.98;10.80;;;;;;;;;;5034113;28;20467;-87
2021/03/18 02:45:59;;;;;;;11.87;10.63;;;;;;;;;;5051723;28;20379;-86
2021/03/18 02:48:32;;;;;;;13.02;10.70;;;;;;;;;;5033889;28;20387;-84
2021/03/18 02:50:59;;;;;;;10.80;9.90;;;;;;;;;;5033662;28;20799;-86
2021/03/18 02:53:26;;;;;;;11.50;10.40;;;;;;;;;;5033859;28;20379;-83
2021/03/18 02:55:53;;;;;;;12.35;11.15;;;;;;;;;;5051604;28;20383;-82
2021/03/18 02:58:21;;;;;;;12.00;10.77;;;;;;;;;;5051650;28;20917;-86
2021/03/18 03:00:48;;;;;;;10.90;9.90;;;;;;;;;;5033508;28;20483;-86
2021/03/18 03:03:16;;;;;;;11.90;10.70;;;;;;;;;;5051210;28;20372;-83
2021/03/18 03:05:42;;;;;;;12.70;11.50;;;;;;;;;;5051465;28;20408;-86
2021/03/18 03:08:08;;;;;;;12.23;10.93;;;;;;;;;;5051394;28;20395;-86
2021/03/18 03:10:34;;;;;;;11.85;10.65;;;;;;;;;;5033387;28;20797;-83
2021/03/18 03:13:01;;;;;;;12.43;11.23;;;;;;;;;;5033551;28;20918;-82
2021/03/18 03:15:29;;;;;;;12.88;11.45;;;;;;;;;;5033805;28;20949;-84
2021/03/18 03:17:57;;;;;;;12.90;11.67;;;;;;;;;;5033338;28;20887;-84
2021/03/18 03:20:23;;;;;;;13.27;11.95;;;;;;;;;;5033727;28;20453;-84
2021/03/18 03:22:49;;;;;;;11.95;10.75;;;;;;;;;;5033424;28;20372;-82
2021/03/18 03:25:16;;;;;;;11.43;10.33;;;;;;;;;;5033337;28;20376;-86
2021/03/18 03:27:43;;;;;;;12.32;11.05;;;;;;;;;;5051013;28;20433;-86
2021/03/18 03:30:10;;;;;;;11.77;10.60;;;;;;;;;;5051262;28;20404;-83
2021/03/18 03:32:36;;;;;;;11.80;10.70;;;;;;;;;;5033256;28;20380;-87
2021/03/18 03:35:03;;;;;;;11.30;10.20;;;;;;;;;;5033296;28;20905;-84
2021/03/18 03:37:29;;;;;;;11.13;9.98;;;;;;;;;;5051089;28;20392;-85
2021/03/18 03:39:55;;;;;;;12.13;11.02;;;;;;;;;;5033246;28;20376;-82
2021/03/18 03:42:21;;;;;;;12.65;11.35;;;;;;;;;;5033123;28;20383;-83
2021/03/18 03:44:48;;;;;;;12.95;11.75;;;;;;;;;;5033907;28;20375;-85
2021/03/18 03:47:14;;;;;;;10.93;9.93;;;;;;;;;;5034768;28;20426;-86
2021/03/18 03:49:41;;;;;;;12.27;11.00;;;;;;;;;;5035158;28;20412;-84
2021/03/18 03:52:07;;;;;;;12.20;11.00;;;;;;;;;;5033299;28;20391;-84
2021/03/18 03:54:37;;;;;;;12.55;11.45;;;;;;;;;;5050914;28;20376;-83
2021/03/18 03:57:13;;;;;;;13.77;12.38;;;;;;;;;;5050803;28;20453;-83
2021/03/18 03:59:41;;;;;;;11.85;10.70;;;;;;;;;;5032866;28;20865;-86
2021/03/18 04:02:07;;;;;;;12.10;11.00;;;;;;;;;;5050639;28;20383;-86
2021/03/18 04:04:36;;;;;;;12.57;11.38;;;;;;;;;;5032845;28;20866;-83
2021/03/18 04:07:05;;;;;;;11.23;10.23;;;;;;;;;;5050408;28;20379;-83
2021/03/18 04:09:32;;;;;;;13.70;11.45;;;;;;;;;;5032415;28;20474;-87
2021/03/18 04:11:59;;;;;;;12.48;11.18;;;;;;;;;;5032687;28;20387;-86
2021/03/18 04:14:27;;;;;;;13.15;11.85;;;;;;;;;;5032097;28;20368;-86
2021/03/18 04:16:54;;;;;;;12.70;11.50;;;;;;;;;;5050436;28;20685;-85
2021/03/18 04:19:21;;;;;;;12.47;11.20;;;;;;;;;;5032513;28;20379;-83
2021/03/18 04:21:50;;;;;;;12.13;11.02;;;;;;;;;;5032487;28;20429;-81
2021/03/18 04:24:16;;;;;;;12.80;11.60;;;;;;;;;;5032362;28;20380;-82
2021/03/18 04:26:43;;;;;;;13.67;12.27;;;;;;;;;;5050337;28;20378;-84
2021/03/18 04:29:09;;;;;;;14.57;13.15;;;;;;;;;;5050115;28;20376;-88
2021/03/18 04:31:39;;;;;;;13.23;11.90;;;;;;;;;;5032555;28;20376;-84
2021/03/18 04:34:06;;;;;;;12.50;11.30;;;;;;;;;;5050332;28;20400;-83
2021/03/18 04:36:32;;;;;;;14.70;13.07;;;;;;;;;;5050026;28;20406;-85
2021/03/18 04:38:59;;;;;;;13.63;12.32;;;;;;;;;;5049958;28;20399;-85
2021/03/18 04:41:27;;;;;;;15.53;13.93;;;;;;;;;;5032091;28;20386;-86
2021/03/18 04:43:53;;;;;;;16.58;14.55;;;;;;;;;;5032183;28;20462;-86
2021/03/18 04:46:19;;;;;;;16.37;14.70;;;;;;;;;;5032681;28;20865;-81
2021/03/18 04:48:46;;;;;;;14.73;13.23;;;;;;;;;;5050070;28;20372;-85
2021/03/18 04:51:12;;;;;;;17.50;15.05;;;;;;;;;;5050053;28;20885;-87
2021/03/18 04:53:39;;;;;;;16.33;14.45;;;;;;;;;;5050166;28;20468;-82
2021/03/18 04:56:06;;;;;;;15.23;13.63;;;;;;;;;;5032271;28;21060;-85
2021/03/18 04:58:33;;;;;;;15.60;13.95;;;;;;;;;;5032373;28;20376;-86
2021/03/18 05:00:59;;;;;;;15.57;14.05;;;;;;;;;;5050007;28;20384;-83
2021/03/18 05:03:25;;;;;;;14.02;12.60;;;;;;;;;;5032395;28;20368;-83
2021/03/18 05:05:52;;;;;;;14.90;13.10;;;;;;;;;;5050058;28;20924;-82
2021/03/18 05:08:19;;;;;;;13.45;12.18;;;;;;;;;;5031916;28;20380;-83
2021/03/18 05:10:46;;;;;;;14.88;13.38;;;;;;;;;;5049863;28;20412;-87
2021/03/18 05:13:12;;;;;;;15.70;14.10;;;;;;;;;;5049940;28;20368;-83
2021/03/18 05:15:39;;;;;;;16.42;14.45;;;;;;;;;;5050132;28;20367;-85
2021/03/18 05:18:08;;;;;;;18.08;16.27;;;;;;;;;;5049683;28;20371;-84
2021/03/18 05:20:35;;;;;;;18.15;16.25;;;;;;;;;;5049756;28;20398;-86
2021/03/18 05:23:01;;;;;;;19.95;16.65;;;;;;;;;;5050264;28;20364;-84
2021/03/18 05:25:29;;;;;;;20.40;18.10;;;;;;;;;;5033419;28;20896;-87
2021/03/18 05:27:55;;;;;;;18.45;16.58;;;;;;;;;;5053476;28;20372;-85
2021/03/18 05:30:22;;;;;;;17.33;15.65;;;;;;;;;;5053992;28;20411;-85
2021/03/18 05:32:48;;;;;;;17.45;15.63;;;;;;;;;;5053589;28;20442;-85
2021/03/18 05:35:14;;;;;;;18.10;16.20;;;;;;;;;;5035860;28;20375;-83
2021/03/18 05:37:41;;;;;;;17.33;15.63;;;;;;;;;;5035353;28;20390;-83
2021/03/18 05:40:08;;;;;;;16.73;15.02;;;;;;;;;;5035460;28;20387;-86
2021/03/18 05:42:35;;;;;;;17.65;15.75;;;;;;;;;;5052904;28;20471;-86
2021/03/18 05:45:01;;;;;;;16.95;15.25;;;;;;;;;;5053057;28;20451;-85
2021/03/18 05:47:29;;;;;;;17.53;15.73;;;;;;;;;;5053191;28;20403;-83
2021/03/18 05:49:55;;;;;;;17.75;15.95;;;;;;;;;;5053134;28;20904;-81
2021/03/18 05:52:22;;;;;;;18.40;16.50;;;;;;;;;;5053080;28;20446;-85
2021/03/18 05:54:48;;;;;;;19.77;17.80;;;;;;;;;;5035353;28;20947;-84
2021/03/18 05:57:16;;;;;;;18.10;16.33;;;;;;;;;;5035293;28;20468;-85
2021/03/18 05:59:46;;;;;;;18.00;16.30;;;;;;;;;;5035179;28;20375;-84
2021/03/18 06:02:12;;;;;;;17.58;15.88;;;;;;;;;;5052969;28;20741;-83
2021/03/18 06:04:39;;;;;;;17.23;15.53;;;;;;;;;;5052841;28;20419;-84
2021/03/18 06:07:06;;;;;;;19.83;17.73;;;;;;;;;;5052858;28;20378;-86
2021/03/18 06:09:32;;;;;;;18.90;16.40;;;;;;;;;;5034529;28;20482;-85
2021/03/18 06:11:58;;;;;;;17.40;15.70;;;;;;;;;;5033477;28;20490;-85
2021/03/18 06:14:25;;;;;;;17.70;15.95;;;;;;;;;;5032645;28;20390;-87
2021/03/18 06:16:52;;;;;;;18.20;15.85;;;;;;;;;;5032891;28;20381;-83
2021/03/18 06:19:18;;;;;;;18.97;16.97;;;;;;;;;;5014885;28;20759;-85
2021/03/18 06:21:51;;;;;;;17.88;15.80;;;;;;;;;;5032675;28;20378;-85
2021/03/18 06:24:18;;;;;;;18.43;16.50;;;;;;;;;;5032517;28;20409;-86
2021/03/18 06:26:44;;;;;;;15.18;13.68;;;;;;;;;;5032596;28;20366;-83
2021/03/18 06:29:29;;;;;;;18.02;16.17;;;;;;;;;;5014572;28;20385;-85
2021/03/18 06:31:55;;;;;;;16.58;14.75;;;;;;;;;;5032286;28;20409;-83
2021/03/18 06:34:58;;;;;;;15.65;14.07;;;;;;;;;;5032641;28;20370;-86
2021/03/18 06:37:27;;;;;;;18.92;15.90;;;;;;;;;;4970717;28;20490;-85
2021/03/18 06:39:54;;;;;;;21.43;18.87;;;;;;;;;;5004569;28;20480;-85
2021/03/18 06:42:19;;;;;;;29.60;22.63;;;;;;;;;;5014478;28;20433;-83
2021/03/18 06:44:45;;;;;;;20.45;18.35;;;;;;;;;;5032027;28;20378;-83
2021/03/18 06:47:13;;;;;;;21.58;18.80;;;;;;;;;;5014341;28;20385;-84
2021/03/18 06:49:39;;;;;;;20.23;18.13;;;;;;;;;;5014298;28;20467;-85
2021/03/18 06:52:06;;;;;;;21.40;19.10;;;;;;;;;;5012055;28;20744;-83
2021/03/18 06:54:35;;;;;;;20.58;17.35;;;;;;;;;;5033232;28;20382;-83
2021/03/18 06:57:02;;;;;;;20.83;18.63;;;;;;;;;;5040037;28;20374;-83
2021/03/18 06:59:29;;;;;;;21.45;19.13;;;;;;;;;;5039211;28;20398;-84
2021/03/18 07:02:02;;;;;;;20.73;18.52;;;;;;;;;;5037206;28;20388;-85
2021/03/18 07:04:41;;;;;;;18.38;16.48;;;;;;;;;;5031303;28;20381;-83
2021/03/18 07:07:08;;;;;;;19.50;17.55;;;;;;;;;;5013463;28;20384;-84
2021/03/18 07:09:34;;;;;;;21.80;17.85;;;;;;;;;;5030257;28;20454;-84
2021/03/18 07:12:02;;;;;;;19.48;17.42;;;;;;;;;;5030646;28;20387;-84
2021/03/18 07:14:33;;;;;;;20.20;18.17;;;;;;;;;;5039925;28;20417;-83
2021/03/18 07:16:59;;;;;;;19.88;17.50;;;;;;;;;;5022302;28;20903;-83
2021/03/18 07:19:26;;;;;;;20.63;18.42;;;;;;;;;;5027843;28;20384;-82
2021/03/18 07:21:53;;;;;;;19.90;17.80;;;;;;;;;;5001687;28;20526;-84
2021/03/18 07:24:22;;;;;;;20.08;17.65;;;;;;;;;;5004058;28;20392;-83
2021/03/18 07:26:48;;;;;;;19.75;17.85;;;;;;;;;;5019894;28;20396;-84
2021/03/18 07:29:16;;;;;;;20.35;18.25;;;;;;;;;;5002834;28;20387;-84
2021/03/18 07:31:43;;;;;;;20.60;18.40;;;;;;;;;;5030242;28;20391;-86
2021/03/18 07:34:11;;;;;;;19.45;17.08;;;;;;;;;;5033108;28;20407;-85
2021/03/18 07:36:38;;;;;;;17.38;15.57;;;;;;;;;;5021340;28;20476;-83
2021/03/18 07:39:05;;;;;;;19.57;17.47;;;;;;;;;;5013369;28;20400;-83
2021/03/18 07:41:33;;;;;;;17.85;16.05;;;;;;;;;;5030411;28;20898;-82
2021/03/18 07:43:59;;;;;;;17.48;15.68;;;;;;;;;;5012900;28;20413;-84
2021/03/18 07:46:26;;;;;;;18.33;16.05;;;;;;;;;;5026470;28;20415;-86
2021/03/18 07:48:56;;;;;;;19.13;16.70;;;;;;;;;;5022362;28;20467;-85
2021/03/18 07:51:22;;;;;;;18.90;16.83;;;;;;;;;;5022031;28;20804;-85
2021/03/18 07:53:50;;;;;;;17.40;15.63;;;;;;;;;;5011100;28;20379;-84
2021/03/18 07:56:16;;;;;;;19.33;16.00;;;;;;;;;;5019214;28;20651;-86
2021/03/18 07:58:42;;;;;;;20.50;17.58;;;;;;;;;;5027756;28;20385;-84
2021/03/18 08:01:28;;;;;;;19.67;17.67;;;;;;;;;;4993701;28;20442;-82
2021/03/18 08:03:54;;;;;;;19.00;17.00;;;;;;;;;;5034074;28;20576;-82
2021/03/18 08:06:39;;;;;;;19.92;17.85;;;;;;;;;;5036515;28;20963;-83
2021/03/18 08:09:13;;;;;;;19.53;16.97;;;;;;;;;;5015282;28;20397;-82
2021/03/18 08:11:48;;;;;;;18.80;16.57;;;;;;;;;;5036073;28;20444;-82
2021/03/18 08:14:16;;;;;;;18.48;16.42;;;;;;;;;;5036041;28;20389;-84
2021/03/18 08:16:42;;;;;;;19.05;17.05;;;;;;;;;;5034729;28;20381;-85
2021/03/18 08:19:15;;;;;;;18.08;16.23;;;;;;;;;;5035325;28;20391;-84
2021/03/18 08:21:42;;;;;;;19.80;17.08;;;;;;;;;;5033649;28;20397;-82
2021/03/18 08:24:18;;;;;;;20.77;18.67;;;;;;;;;;5035938;28;20450;-81
2021/03/18 08:26:48;;;;;;;20.98;18.67;;;;;;;;;;5030181;28;20391;-82
2021/03/18 08:29:19;;;;;;;20.90;18.25;;;;;;;;;;5035181;28;20458;-82
2021/03/18 08:31:47;;;;;;;21.85;19.45;;;;;;;;;;5034550;28;20387;-83
2021/03/18 08:34:14;;;;;;;23.25;20.23;;;;;;;;;;5035628;28;20380;-82
2021/03/18 08:36:41;;;;;;;23.15;20.08;;;;;;;;;;5033069;28;20391;-86
2021/03/18 08:39:08;;;;;;;23.75;20.25;;;;;;;;;;5025925;28;20393;-82
2021/03/18 08:41:34;;;;;;;21.80;19.27;;;;;;;;;;5032957;28;20906;-84
2021/03/18 08:44:19;;;;;;;23.23;19.98;;;;;;;;;;5012871;28;20391;-83
2021/03/18 08:47:11;;;;;;;23.10;20.38;;;;;;;;;;5031751;28;20392;-83
2021/03/18 08:49:37;;;;;;;26.13;21.77;;;;;;;;;;5029940;28;20912;-82
2021/03/18 08:52:07;;;;;;;24.77;22.13;;;;;;;;;;5017283;28;20397;-82
2021/03/18 08:54:39;;;;;;;25.52;22.13;;;;;;;;;;5034198;28;20407;-82
2021/03/18 08:57:06;;;;;;;25.05;22.42;;;;;;;;;;5015814;28;20449;-83
2021/03/18 08:59:33;;;;;;;23.85;21.17;;;;;;;;;;5033729;28;21291;-83
2021/03/18 09:02:15;;;;;;;25.40;21.97;;;;;;;;;;5038415;28;20874;-82
2021/03/18 09:04:42;;;;;;;24.95;21.38;;;;;;;;;;5014357;28;20389;-84
2021/03/18 09:07:10;;;;;;;23.80;21.17;;;;;;;;;;5014446;28;20391;-83
2021/03/18 09:09:36;;;;;;;21.95;19.60;;;;;;;;;;5036577;28;20406;-82
2021/03/18 09:12:03;;;;;;;22.98;20.45;;;;;;;;;;5039134;28;20391;-83
2021/03/18 09:14:30;;;;;;;23.42;20.23;;;;;;;;;;5039387;28;20419;-83
2021/03/18 09:17:03;;;;;;;22.65;20.10;;;;;;;;;;5021516;28;20764;-83
2021/03/18 09:19:29;;;;;;;22.38;19.98;;;;;;;;;;5027446;28;20423;-82
2021/03/18 09:21:55;;;;;;;25.40;21.63;;;;;;;;;;5024671;28;20895;-82
2021/03/18 09:24:21;;;;;;;20.35;17.67;;;;;;;;;;5037136;28;20792;-84
2021/03/18 09:26:48;;;;;;;20.67;18.47;;;;;;;;;;5037485;28;20941;-85
2021/03/18 09:29:14;;;;;;;22.95;19.60;;;;;;;;;;5030828;28;20499;-83
2021/03/18 09:31:40;;;;;;;21.63;19.27;;;;;;;;;;5033407;28;20418;-85
2021/03/18 09:34:06;;;;;;;20.95;18.75;;;;;;;;;;5013085;28;20397;-83
2021/03/18 09:36:33;;;;;;;21.02;18.70;;;;;;;;;;5036903;28;20373;-84
2021/03/18 09:38:59;;;;;;;20.60;18.37;;;;;;;;;;5036889;28;20424;-83
2021/03/18 09:41:26;;;;;;;22.20;19.85;;;;;;;;;;5018827;28;20893;-82
2021/03/18 09:44:11;;;;;;;21.52;19.33;;;;;;;;;;5014944;28;20387;-83
2021/03/18 09:46:38;;;;;;;20.23;18.00;;;;;;;;;;5014928;28;20401;-82
2021/03/18 09:49:05;;;;;;;22.03;18.57;;;;;;;;;;5036118;28;20487;-83
2021/03/18 09:51:34;;;;;;;23.00;19.90;;;;;;;;;;5034548;28;20488;-82
2021/03/18 09:54:02;;;;;;;21.88;19.48;;;;;;;;;;5011101;28;21016;-83
2021/03/18 09:56:28;;;;;;;20.98;18.77;;;;;;;;;;5033815;28;20423;-84
2021/03/18 09:58:55;;;;;;;22.92;20.42;;;;;;;;;;5034959;28;21200;-83
2021/03/18 10:01:25;;;;;;;20.80;18.63;;;;;;;;;;5033219;28;20462;-84
2021/03/18 10:03:59;;;;;;;19.88;17.77;;;;;;;;;;5033252;28;20464;-83
2021/03/18 10:06:27;;;;;;;20.48;17.80;;;;;;;;;;5013683;28;20386;-84
2021/03/18 10:08:53;;;;;;;20.33;18.13;;;;;;;;;;5032492;28;20393;-82
2021/03/18 10:11:21;;;;;;;20.48;17.83;;;;;;;;;;5035576;28;20400;-83
2021/03/18 10:13:48;;;;;;;21.77;18.73;;;;;;;;;;5034823;28;20484;-83
2021/03/18 10:16:14;;;;;;;21.75;19.48;;;;;;;;;;5017912;28;20475;-87
2021/03/18 10:18:40;;;;;;;19.30;17.30;;;;;;;;;;5015764;28;20892;-88
2021/03/18 10:21:06;;;;;;;18.35;16.40;;;;;;;;;;5035294;28;20374;-84
2021/03/18 10:23:34;;;;;;;19.63;17.52;;;;;;;;;;5033712;28;20775;-81
2021/03/18 10:26:00;;;;;;;19.00;17.00;;;;;;;;;;5016739;28;20766;-83
2021/03/18 10:28:32;;;;;;;18.80;16.80;;;;;;;;;;5040899;28;20464;-83
2021/03/18 10:30:58;;;;;;;17.60;15.70;;;;;;;;;;5016988;28;20769;-85
2021/03/18 10:33:25;;;;;;;15.98;14.20;;;;;;;;;;5031898;28;20374;-83
2021/03/18 10:35:54;;;;;;;16.38;14.30;;;;;;;;;;5016354;28;20396;-82
2021/03/18 10:38:37;;;;;;;15.50;13.87;;;;;;;;;;5038844;28;20765;-83
2021/03/18 10:41:08;;;;;;;14.50;12.90;;;;;;;;;;5016580;28;20388;-86
2021/03/18 10:43:35;;;;;;;16.13;14.35;;;;;;;;;;5038856;28;20384;-83
2021/03/18 10:46:03;;;;;;;13.18;11.85;;;;;;;;;;5038237;28;20375;-85
2021/03/18 10:48:30;;;;;;;13.40;12.00;;;;;;;;;;5037923;28;20383;-83
2021/03/18 10:51:01;;;;;;;13.57;12.25;;;;;;;;;;5038221;28;20405;-83
2021/03/18 10:53:27;;;;;;;12.45;10.75;;;;;;;;;;5037350;28;20390;-83
2021/03/18 10:55:54;;;;;;;11.77;10.50;;;;;;;;;;5037422;28;20855;-85
2021/03/18 10:58:22;;;;;;;10.55;9.55;;;;;;;;;;5037436;28;20387;-83
2021/03/18 11:00:49;;;;;;;10.68;9.02;;;;;;;;;;5036625;28;20379;-83
2021/03/18 11:03:16;;;;;;;8.52;7.63;;;;;;;;;;5015843;28;20385;-83
2021/03/18 11:05:46;;;;;;;9.52;8.38;;;;;;;;;;5018660;28;20867;-84
2021/03/18 11:08:13;;;;;;;10.73;8.70;;;;;;;;;;5037715;28;20364;-83
2021/03/18 11:10:42;;;;;;;8.63;7.60;;;;;;;;;;5037964;28;20405;-83
2021/03/18 11:13:09;;;;;;;9.20;7.63;;;;;;;;;;5037907;28;20378;-84
2021/03/18 11:15:52;;;;;;;9.00;8.10;;;;;;;;;;5038256;28;20452;-82
2021/03/18 11:18:26;;;;;;;9.23;8.10;;;;;;;;;;5019537;28;20784;-83
2021/03/18 11:20:52;;;;;;;10.82;8.70;;;;;;;;;;5015751;28;20947;-83
2021/03/18 11:23:24;;;;;;;9.10;7.72;;;;;;;;;;5037833;28;20423;-85
2021/03/18 11:25:55;;;;;;;7.63;6.82;;;;;;;;;;5015909;28;20394;-84
2021/03/18 11:28:21;;;;;;;7.75;5.70;;;;;;;;;;5038031;28;20529;-85
2021/03/18 11:30:47;;;;;;;8.98;7.00;;;;;;;;;;5018927;28;20496;-85
2021/03/18 11:33:20;;;;;;;8.48;7.47;;;;;;;;;;5037454;28;20362;-84
2021/03/18 11:35:48;;;;;;;9.52;7.82;;;;;;;;;;5016555;28;20384;-84
2021/03/18 11:38:14;;;;;;;8.20;7.35;;;;;;;;;;5037193;28;20372;-84
2021/03/18 11:40:42;;;;;;;8.25;6.50;;;;;;;;;;5037849;28;20370;-83
2021/03/18 11:43:08;;;;;;;7.18;6.47;;;;;;;;;;5037586;28;20368;-84
2021/03/18 11:45:34;;;;;;;7.97;6.32;;;;;;;;;;5018374;28;20389;-84
2021/03/18 11:48:00;;;;;;;6.00;5.25;;;;;;;;;;5015622;28;20387;-84
2021/03/18 11:50:27;;;;;;;5.55;4.95;;;;;;;;;;5018246;28;20944;-85
2021/03/18 11:52:53;;;;;;;6.50;5.33;;;;;;;;;;5037210;28;20374;-85
2021/03/18 11:55:19;;;;;;;7.25;5.70;;;;;;;;;;5037122;28;20465;-83
2021/03/18 11:57:46;;;;;;;6.55;5.82;;;;;;;;;;5037312;28;20388;-85
2021/03/18 12:00:12;;;;;;;6.50;5.90;;;;;;;;;;5019806;28;20382;-83
2021/03/18 12:02:38;;;;;;;6.25;5.43;;;;;;;;;;5037435;28;20369;-84
2021/03/18 12:05:06;;;;;;;5.93;5.22;;;;;;;;;;5036898;28;20377;-84
2021/03/18 12:07:32;;;;;;;6.25;4.82;;;;;;;;;;5018948;28;20385;-83
2021/03/18 12:09:59;;;;;;;5.23;4.63;;;;;;;;;;5032134;28;20446;-83
2021/03/18 12:12:27;;;;;;;6.70;5.30;;;8.40;99.90;;;;;;5036495;28;20399;-85
2021/03/18 12:14:53;;;;;;;6.13;4.78;;;8.20;99.90;;;;;;5018277;28;20895;-82
2021/03/18 12:17:18;;;;;;;6.43;5.03;;;8.30;99.90;;;;;;5036154;28;20373;-82
2021/03/18 12:19:44;;;;;;;6.22;5.28;;;8.30;99.90;;;;;;5035630;28;20386;-81
2021/03/18 12:22:10;;;;;;;5.80;4.57;;;8.10;99.90;;;;;;5036268;28;20389;-86
2021/03/18 12:24:35;;;;;;;6.88;5.05;;;7.80;99.90;;;;;;5017468;28;20405;-84
2021/03/18 12:27:01;;;;;;;5.75;5.15;;;7.50;99.90;;;;;;5018676;28;20397;-85
2021/03/18 12:29:26;;;;;;;6.47;5.53;;;7.30;99.90;;;;;;5018411;28;20477;-86
2021/03/18 12:31:52;;;;;;;5.60;5.10;;;7.00;99.90;;;;;;5017431;28;20436;-82
2021/03/18 12:34:17;;;;;;;6.07;4.90;;;6.80;99.90;;;;;;5035608;28;20374;-82
2021/03/18 12:36:43;;;;;;;5.93;4.90;;;6.80;99.90;;;;;;5033668;28;20919;-83
2021/03/18 12:39:09;;;;;;;5.30;4.77;;;6.90;99.90;;;;;;5035420;28;20440;-83
2021/03/18 12:41:35;;;;;;;5.97;5.15;;;7.00;99.90;;;;;;5035528;28;20381;-84
2021/03/18 12:44:01;;;;;;;6.75;4.90;;;7.00;99.90;;;;;;5012359;28;20390;-86
2021/03/18 12:46:27;;;;;;;6.95;5.50;;;7.10;99.90;;;;;;5016131;28;20430;-87
2021/03/18 12:48:55;;;;;;;7.00;5.72;;;7.10;99.90;;;;;;5036279;28;20427;-85
2021/03/18 12:51:22;;;;;;;7.13;5.57;;;7.20;99.90;;;;;;5013361;28;20411;-85
2021/03/18 12:53:48;;;;;;;6.68;5.40;;;7.30;99.90;;;;;;5015018;28;20878;-86
2021/03/18 12:56:14;;;;;;;6.27;5.40;;;7.30;99.90;;;;;;5034473;28;20449;-85
2021/03/18 12:58:41;;;;;;;5.87;5.20;;;7.50;99.90;;;;;;5013786;28;20920;-85
2021/03/18 13:01:08;;;;;;;6.35;5.57;;;7.60;99.90;;;;;;5013678;28;20435;-85
2021/03/18 13:03:36;;;;;;;6.22;5.40;;;8.00;99.90;;;;;;5016162;28;20377;-82
2021/03/18 13:06:02;;;;;;;6.07;5.07;;;8.10;99.90;;;;;;5035035;28;20373;-85
2021/03/18 13:08:28;;;;;;;7.05;5.28;;;8.20;99.90;;;;;;5019052;28;20430;-86
2021/03/18 13:10:53;;;;;;;5.60;5.07;;;8.30;99.90;;;;;;5016245;28;20471;-86
2021/03/18 13:13:19;;;;;;;5.13;4.37;;;8.60;99.90;;;;;;5036216;28;20381;-84
2021/03/18 13:15:46;;;;;;;6.35;4.60;;;8.80;99.90;;;;;;5034482;28;20371;-82
2021/03/18 13:18:11;;;;;;;6.28;4.80;;;9.10;99.90;;;;;;5016914;28;20405;-86
2021/03/18 13:20:38;;;;;;;4.90;4.40;;;9.20;99.90;;;;;;5034725;28;20734;-85
2021/03/18 13:23:04;;;;;;;5.10;4.60;;;9.10;99.90;;;;;;5035820;28;20477;-86
2021/03/18 13:25:30;;;;;;;4.83;4.03;;;9.10;99.90;;;;;;5035821;28;20459;-85
2021/03/18 13:27:56;;;;;;;4.47;4.03;;;9.00;99.90;;;;;;5014342;28;20374;-85
2021/03/18 13:30:24;;;;;;;5.40;3.95;;;8.70;99.90;;;;;;5013458;28;20405;-84
2021/03/18 13:32:51;;;;;;;6.00;4.60;;;8.50;99.90;;;;;;5031760;28;21065;-84
2021/03/18 13:35:18;;;;;;;6.28;4.20;;;8.30;99.90;;;;;;5034875;28;20439;-85
2021/03/18 13:37:44;;;;;;;5.32;4.80;;;8.00;99.90;;;;;;5014957;28;20760;-85
2021/03/18 13:40:10;;;;;;;6.63;5.45;;;7.90;99.90;;;;;;5016004;28;20375;-84
2021/03/18 13:42:35;;;;;;;8.23;5.88;;;7.70;99.90;;;;;;5016571;28;20391;-84
2021/03/18 13:45:01;;;;;;;6.83;5.67;;;7.50;99.90;;;;;;5035473;28;20461;-84
2021/03/18 13:47:27;;;;;;;6.32;5.70;;;7.40;99.90;;;;;;5020625;28;20400;-86
2021/03/18 13:49:53;;;;;;;7.35;6.47;;;7.30;99.90;;;;;;5020121;28;20737;-86
2021/03/18 13:52:19;;;;;;;6.47;5.60;;;7.30;99.90;;;;;;5021795;28;20449;-85
2021/03/18 13:54:44;;;;;;;6.77;5.83;;;7.30;99.90;;;;;;5020141;28;20396;-83
2021/03/18 13:57:11;;;;;;;6.63;5.40;;;7.20;99.90;;;;;;5013978;28;20518;-87
2021/03/18 13:59:37;;;;;;;6.77;5.50;;;7.30;99.90;;;;;;5016483;28;20388;-87
2021/03/18 14:02:03;;;;;;;7.30;5.43;;;7.40;99.90;;;;;;5037153;28;20400;-85
2021/03/18 14:04:28;;;;;;;6.87;5.30;;;7.40;99.90;;;;;;5019349;28;20428;-86
2021/03/18 14:06:54;;;;;;;5.03;4.50;;;7.40;99.90;;;;;;5036430;28;20411;-87
2021/03/18 14:09:20;;;;;;;6.95;5.03;;;7.50;99.90;;;;;;5020326;28;20443;-87